Time;durP1;ratioP1;P1;durP2;ratioP2;P2;SDS_P1;SDS_P2;PMS_P1;PMS_P2;Temp;Humidity;BMP_temperature;BMP_pressure;BME280_temperature;BME280_humidity;BME280_pressure;Samples;Min_cycle;Max_cycle;Signal;HPM_P1;HPM_P2
2023/08/29 00:00:02;;;;;;;0.10;0.10;;;;;;;;;;6159127;23;20080;-90
2023/08/29 00:02:31;;;;;;;0.10;0.10;;;;;;;;;;6159313;23;20052;-90
2023/08/29 00:04:57;;;;;;;0.10;0.10;;;;;;;;;;6134824;23;20013;-89
2023/08/29 00:07:23;;;;;;;0.10;0.10;;;;;;;;;;6158448;23;20059;-90
2023/08/29 00:09:49;;;;;;;0.10;0.10;;;;;;;;;;6159178;23;20091;-89
2023/08/29 00:12:15;;;;;;;0.10;0.10;;;;;;;;;;6134121;23;20017;-89
2023/08/29 00:14:41;;;;;;;0.10;0.10;;;;;;;;;;6158437;23;20095;-89
2023/08/29 00:17:07;;;;;;;0.10;0.10;;;;;;;;;;6158704;23;20012;-89
2023/08/29 00:19:33;;;;;;;0.10;0.10;;;;;;;;;;6134091;23;20021;-90
2023/08/29 00:21:59;;;;;;;0.10;0.10;;;;;;;;;;6134494;23;20098;-90
2023/08/29 00:24:26;;;;;;;0.10;0.10;;;;;;;;;;6134497;23;20410;-91
2023/08/29 00:26:52;;;;;;;0.10;0.10;;;;;;;;;;6133940;23;20450;-90
2023/08/29 00:29:18;;;;;;;0.10;0.10;;;;;;;;;;6158723;23;20092;-91
2023/08/29 00:31:44;;;;;;;0.10;0.10;;;;;;;;;;6134852;23;20481;-91
2023/08/29 00:34:10;;;;;;;0.10;0.10;;;;;;;;;;6134236;23;20013;-90
2023/08/29 00:36:36;;;;;;;0.10;0.10;;;;;;;;;;6134506;23;20041;-91
2023/08/29 00:39:03;;;;;;;0.10;0.10;;;;;;;;;;6158628;23;20009;-90
2023/08/29 00:41:30;;;;;;;0.10;0.10;;;;;;;;;;6134607;23;20013;-91
2023/08/29 00:43:56;;;;;;;0.10;0.10;;;;;;;;;;6134601;23;20335;-91
2023/08/29 00:46:23;;;;;;;0.10;0.10;;;;;;;;;;6158946;23;20017;-91
2023/08/29 00:48:49;;;;;;;0.05;0.05;;;;;;;;;;6158732;23;20044;-91
2023/08/29 00:51:15;;;;;;;0.10;0.10;;;;;;;;;;6158339;23;20021;-90
2023/08/29 00:53:41;;;;;;;0.10;0.10;;;;;;;;;;6158054;23;20091;-91
2023/08/29 00:56:07;;;;;;;0.10;0.10;;;;;;;;;;6133746;23;20451;-89
2023/08/29 00:58:33;;;;;;;0.10;0.10;;;;;;;;;;6158116;23;20013;-90
2023/08/29 01:00:59;;;;;;;0.10;0.10;;;;;;;;;;6158084;23;20016;-90
2023/08/29 01:03:25;;;;;;;0.10;0.10;;;;;;;;;;6158197;23;20013;-90
2023/08/29 01:05:51;;;;;;;0.10;0.10;;;;;;;;;;6134171;23;20017;-90
2023/08/29 01:08:17;;;;;;;0.10;0.10;;;;;;;;;;6158222;23;20044;-90
2023/08/29 01:10:46;;;;;;;0.10;0.10;;;;;;;;;;6158191;23;20021;-90
2023/08/29 01:13:12;;;;;;;0.10;0.10;;;;;;;;;;6133366;23;20490;-90
2023/08/29 01:15:38;;;;;;;0.10;0.10;;;;;;;;;;6182348;23;20016;-89
2023/08/29 01:18:05;;;;;;;0.10;0.10;;;;;;;;;;6134013;23;20016;-91
2023/08/29 01:20:31;;;;;;;0.10;0.10;;;;;;;;;;6133381;23;20017;-90
2023/08/29 01:23:08;;;;;;;0.10;0.10;;;;;;;;;;6158368;23;20013;-91
2023/08/29 01:25:57;;;;;;;0.10;0.10;;;;;;;;;;6158453;23;20031;-90
2023/08/29 01:28:23;;;;;;;0.10;0.10;;;;;;;;;;6139781;23;20404;-90
2023/08/29 01:30:49;;;;;;;0.10;0.10;;;;;;;;;;6133182;23;20017;-90
2023/08/29 01:33:15;;;;;;;0.10;0.10;;;;;;;;;;6133620;23;20067;-90
2023/08/29 01:35:47;;;;;;;0.10;0.10;;;;;;;;;;6158107;23;20017;-90
2023/08/29 01:38:15;;;;;;;0.10;0.10;;;;;;;;;;6133316;23;20451;-90
2023/08/29 01:40:41;;;;;;;0.10;0.10;;;;;;;;;;6158549;23;20355;-90
2023/08/29 01:43:07;;;;;;;0.10;0.10;;;;;;;;;;6157815;23;20021;-90
2023/08/29 01:45:33;;;;;;;0.10;0.10;;;;;;;;;;6133490;23;20060;-90
2023/08/29 01:47:59;;;;;;;0.10;0.10;;;;;;;;;;6133401;23;20407;-91
2023/08/29 01:50:25;;;;;;;0.10;0.10;;;;;;;;;;6157860;23;20021;-90
2023/08/29 01:52:52;;;;;;;0.10;0.10;;;;;;;;;;6158219;23;20082;-90
2023/08/29 01:55:18;;;;;;;0.10;0.10;;;;;;;;;;6157748;23;20028;-89
2023/08/29 01:57:44;;;;;;;0.10;0.10;;;;;;;;;;6133372;23;20019;-90
2023/08/29 02:00:11;;;;;;;0.10;0.10;;;;;;;;;;6157378;23;20104;-90
2023/08/29 02:02:36;;;;;;;0.10;0.10;;;;;;;;;;6158051;23;20013;-89
2023/08/29 02:05:03;;;;;;;0.10;0.10;;;;;;;;;;6133144;23;20037;-90
2023/08/29 02:07:29;;;;;;;0.10;0.10;;;;;;;;;;6184200;23;20020;-90
2023/08/29 02:09:55;;;;;;;0.10;0.10;;;;;;;;;;6133234;23;20017;-90
2023/08/29 02:12:20;;;;;;;0.10;0.10;;;;;;;;;;6157808;23;20013;-90
2023/08/29 02:14:47;;;;;;;0.10;0.10;;;;;;;;;;6133471;23;20024;-89
2023/08/29 02:17:13;;;;;;;0.10;0.10;;;;;;;;;;6157338;23;20049;-89
2023/08/29 02:19:39;;;;;;;0.10;0.10;;;;;;;;;;6157784;23;20064;-90
2023/08/29 02:22:05;;;;;;;0.10;0.10;;;;;;;;;;6133102;23;20009;-91
2023/08/29 02:24:31;;;;;;;0.10;0.10;;;;;;;;;;6133308;23;20402;-91
2023/08/29 02:26:57;;;;;;;0.10;0.10;;;;;;;;;;6133586;23;20009;-91
2023/08/29 02:29:23;;;;;;;0.10;0.10;;;;;;;;;;6133549;23;20335;-90
2023/08/29 02:31:49;;;;;;;0.10;0.10;;;;;;;;;;6157834;23;20063;-90
2023/08/29 02:34:16;;;;;;;0.10;0.10;;;;;;;;;;6133830;23;20017;-90
2023/08/29 02:36:42;;;;;;;0.10;0.10;;;;;;;;;;6132866;23;20049;-90
2023/08/29 02:39:08;;;;;;;0.10;0.10;;;;;;;;;;6133123;23;20350;-91
2023/08/29 02:41:34;;;;;;;0.10;0.10;;;;;;;;;;6158050;23;20013;-91
2023/08/29 02:44:00;;;;;;;0.10;0.10;;;;;;;;;;6158142;23;20016;-91
2023/08/29 02:46:26;;;;;;;0.10;0.10;;;;;;;;;;6159693;23;20016;-90
2023/08/29 02:48:52;;;;;;;0.10;0.10;;;;;;;;;;6159388;23;20048;-90
2023/08/29 02:51:18;;;;;;;0.10;0.10;;;;;;;;;;6134716;23;20410;-91
2023/08/29 02:53:44;;;;;;;0.10;0.10;;;;;;;;;;6135329;23;20028;-90
2023/08/29 02:56:10;;;;;;;0.10;0.10;;;;;;;;;;6135361;23;20080;-90
2023/08/29 02:58:36;;;;;;;0.10;0.10;;;;;;;;;;6159197;23;20109;-89
2023/08/29 03:01:03;;;;;;;0.10;0.10;;;;;;;;;;6186039;23;20197;-91
2023/08/29 03:03:29;;;;;;;0.10;0.10;;;;;;;;;;6159771;23;20009;-90
2023/08/29 03:05:59;;;;;;;0.10;0.10;;;;;;;;;;6159101;23;20017;-90
2023/08/29 03:08:25;;;;;;;0.10;0.10;;;;;;;;;;6159605;23;20017;-90
2023/08/29 03:10:51;;;;;;;0.10;0.10;;;;;;;;;;6159364;23;20024;-90
2023/08/29 03:13:21;;;;;;;0.10;0.10;;;;;;;;;;6159448;23;20013;-90
2023/08/29 03:15:47;;;;;;;0.10;0.10;;;;;;;;;;6134512;23;20013;-91
2023/08/29 03:18:13;;;;;;;0.10;0.10;;;;;;;;;;6159639;23;20086;-90
2023/08/29 03:20:42;;;;;;;0.10;0.10;;;;;;;;;;6159302;23;20370;-90
2023/08/29 03:23:08;;;;;;;0.10;0.10;;;;;;;;;;6159819;23;20530;-90
2023/08/29 03:25:34;;;;;;;0.10;0.10;;;;;;;;;;6159500;23;20041;-90
2023/08/29 03:28:00;;;;;;;0.20;0.20;;;;;;;;;;6160074;23;20013;-94
2023/08/29 03:30:27;;;;;;;0.10;0.10;;;;;;;;;;6136892;23;20101;-92
2023/08/29 03:32:53;;;;;;;0.10;0.10;;;;;;;;;;6135047;23;20471;-91
2023/08/29 03:35:19;;;;;;;0.10;0.10;;;;;;;;;;6159497;23;20074;-91
2023/08/29 03:37:45;;;;;;;0.10;0.10;;;;;;;;;;6134590;23;20017;-90
2023/08/29 03:40:12;;;;;;;0.10;0.10;;;;;;;;;;6134718;23;20021;-90
2023/08/29 03:42:38;;;;;;;0.10;0.10;;;;;;;;;;6159763;23;20076;-90
2023/08/29 03:45:04;;;;;;;0.10;0.10;;;;;;;;;;6159118;23;20019;-91
2023/08/29 03:47:32;;;;;;;0.10;0.10;;;;;;;;;;6134070;23;20040;-90
2023/08/29 03:49:58;;;;;;;0.10;0.10;;;;;;;;;;6134224;23;20235;-90
2023/08/29 03:52:25;;;;;;;0.10;0.10;;;;;;;;;;6183738;23;20207;-91
2023/08/29 03:54:52;;;;;;;0.10;0.10;;;;;;;;;;6159151;23;20017;-90
2023/08/29 03:57:18;;;;;;;0.10;0.10;;;;;;;;;;6133618;23;20404;-91
2023/08/29 03:59:44;;;;;;;0.10;0.10;;;;;;;;;;6158488;23;20459;-89
2023/08/29 04:02:10;;;;;;;0.10;0.10;;;;;;;;;;6158702;23;20012;-89
2023/08/29 04:04:36;;;;;;;0.10;0.10;;;;;;;;;;6134147;23;20005;-89
2023/08/29 04:07:04;;;;;;;0.10;0.10;;;;;;;;;;6134152;23;20102;-90
2023/08/29 04:09:30;;;;;;;0.10;0.10;;;;;;;;;;6159372;23;20088;-89
2023/08/29 04:11:56;;;;;;;0.10;0.10;;;;;;;;;;6183211;23;20055;-89
2023/08/29 04:14:22;;;;;;;0.10;0.10;;;;;;;;;;6185027;23;20414;-89
2023/08/29 04:16:48;;;;;;;0.10;0.10;;;;;;;;;;6184222;23;20013;-89
2023/08/29 04:19:14;;;;;;;0.10;0.10;;;;;;;;;;6133831;23;20017;-89
2023/08/29 04:21:40;;;;;;;0.10;0.10;;;;;;;;;;6134195;23;20009;-88
2023/08/29 04:24:07;;;;;;;0.10;0.10;;;;;;;;;;6158548;23;20013;-90
2023/08/29 04:26:34;;;;;;;0.10;0.10;;;;;;;;;;6134036;23;20039;-90
2023/08/29 04:29:00;;;;;;;0.10;0.10;;;;;;;;;;6134328;23;20013;-91
2023/08/29 04:31:26;;;;;;;0.10;0.10;;;;;;;;;;6134338;23;20019;-90
2023/08/29 04:33:52;;;;;;;0.10;0.10;;;;;;;;;;6159346;23;20045;-90
2023/08/29 04:36:18;;;;;;;0.10;0.10;;;;;;;;;;6158927;23;20024;-90
2023/08/29 04:38:46;;;;;;;0.10;0.10;;;;;;;;;;6183258;23;20016;-89
2023/08/29 04:41:12;;;;;;;0.10;0.10;;;;;;;;;;6133970;23;20040;-90
2023/08/29 04:43:39;;;;;;;0.10;0.10;;;;;;;;;;6158984;23;20013;-91
2023/08/29 04:46:07;;;;;;;0.10;0.10;;;;;;;;;;6158701;23;20080;-90
2023/08/29 04:48:34;;;;;;;0.10;0.10;;;;;;;;;;6133414;23;20013;-90
2023/08/29 04:51:00;;;;;;;0.10;0.10;;;;;;;;;;6134393;23;20024;-91
2023/08/29 04:53:26;;;;;;;0.10;0.10;;;;;;;;;;6134164;23;20466;-90
2023/08/29 04:56:01;;;;;;;0.10;0.10;;;;;;;;;;6185184;23;20178;-91
2023/08/29 04:58:28;;;;;;;0.10;0.10;;;;;;;;;;6133693;23;20093;-90
2023/08/29 05:00:55;;;;;;;0.10;0.10;;;;;;;;;;6133467;23;20013;-90
2023/08/29 05:03:21;;;;;;;0.10;0.10;;;;;;;;;;6182746;23;20013;-90
2023/08/29 05:05:47;;;;;;;0.10;0.10;;;;;;;;;;6158318;23;20316;-89
2023/08/29 05:08:13;;;;;;;0.10;0.10;;;;;;;;;;6183989;23;20331;-88
2023/08/29 05:10:39;;;;;;;0.10;0.10;;;;;;;;;;6133953;23;20065;-90
2023/08/29 05:13:05;;;;;;;0.10;0.10;;;;;;;;;;6158448;23;20023;-90
2023/08/29 05:15:31;;;;;;;0.10;0.10;;;;;;;;;;6158287;23;20021;-90
2023/08/29 05:17:57;;;;;;;0.10;0.10;;;;;;;;;;6133543;23;20013;-90
2023/08/29 05:20:23;;;;;;;0.10;0.10;;;;;;;;;;6158204;23;20020;-89
2023/08/29 05:22:49;;;;;;;0.10;0.10;;;;;;;;;;6133453;23;20017;-89
2023/08/29 05:25:15;;;;;;;0.10;0.10;;;;;;;;;;6133532;23;20474;-88
2023/08/29 05:27:41;;;;;;;0.10;0.10;;;;;;;;;;6133666;23;20009;-89
2023/08/29 05:30:08;;;;;;;0.10;0.10;;;;;;;;;;6134204;23;20024;-90
2023/08/29 05:32:34;;;;;;;0.10;0.10;;;;;;;;;;6133464;23;20024;-90
2023/08/29 05:35:00;;;;;;;0.10;0.10;;;;;;;;;;6157914;23;20012;-90
2023/08/29 05:37:26;;;;;;;0.10;0.10;;;;;;;;;;6158101;23;20048;-90
2023/08/29 05:39:52;;;;;;;0.10;0.10;;;;;;;;;;6133106;23;20017;-91
2023/08/29 05:42:18;;;;;;;0.10;0.10;;;;;;;;;;6157826;23;20382;-90
2023/08/29 05:44:44;;;;;;;0.10;0.10;;;;;;;;;;6133180;23;20036;-90
2023/08/29 05:47:10;;;;;;;0.10;0.10;;;;;;;;;;6157971;23;20009;-90
2023/08/29 05:49:36;;;;;;;0.10;0.10;;;;;;;;;;6133012;23;20021;-90
2023/08/29 05:52:02;;;;;;;0.10;0.10;;;;;;;;;;6158226;23;20009;-91
2023/08/29 05:54:29;;;;;;;0.10;0.10;;;;;;;;;;6157892;23;20063;-90
2023/08/29 05:56:55;;;;;;;0.10;0.10;;;;;;;;;;6157706;23;20045;-90
2023/08/29 05:59:21;;;;;;;0.10;0.10;;;;;;;;;;6157904;23;20028;-90
2023/08/29 06:01:48;;;;;;;0.10;0.10;;;;;;;;;;6133422;23;20112;-89
2023/08/29 06:04:14;;;;;;;0.10;0.10;;;;;;;;;;6184208;23;20009;-91
2023/08/29 06:06:40;;;;;;;0.10;0.10;;;;;;;;;;6184565;23;20577;-90
2023/08/29 06:09:10;;;;;;;0.10;0.10;;;;;;;;;;6157714;23;20009;-90
2023/08/29 06:11:36;;;;;;;0.10;0.10;;;;;;;;;;6133301;23;20011;-90
2023/08/29 06:14:02;;;;;;;0.10;0.10;;;;;;;;;;6184649;23;20127;-91
2023/08/29 06:16:28;;;;;;;0.10;0.10;;;;;;;;;;6158424;23;20010;-90
2023/08/29 06:18:55;;;;;;;0.10;0.10;;;;;;;;;;6133625;23;20061;-90
2023/08/29 06:21:21;;;;;;;0.10;0.10;;;;;;;;;;6184040;23;20017;-91
2023/08/29 06:23:47;;;;;;;0.10;0.10;;;;;;;;;;6159869;23;20072;-90
2023/08/29 06:26:12;;;;;;;0.10;0.10;;;;;;;;;;6135361;23;20328;-91
2023/08/29 06:28:39;;;;;;;0.10;0.10;;;;;;;;;;6159739;23;20127;-89
2023/08/29 06:31:05;;;;;;;0.10;0.10;;;;;;;;;;6160179;23;20091;-91
2023/08/29 06:33:31;;;;;;;0.10;0.10;;;;;;;;;;6159868;23;20028;-91
2023/08/29 06:35:57;;;;;;;0.10;0.10;;;;;;;;;;6135094;23;20024;-91
2023/08/29 06:38:23;;;;;;;0.10;0.10;;;;;;;;;;6135021;23;20020;-91
2023/08/29 06:40:56;;;;;;;0.10;0.10;;;;;;;;;;6135967;23;20052;-92
2023/08/29 06:43:22;;;;;;;0.10;0.10;;;;;;;;;;6161480;23;20076;-92
2023/08/29 06:45:48;;;;;;;0.10;0.10;;;;;;;;;;6159840;23;20009;-92
2023/08/29 06:48:14;;;;;;;0.10;0.10;;;;;;;;;;6159920;23;20464;-90
2023/08/29 06:50:40;;;;;;;0.10;0.10;;;;;;;;;;6160125;23;20024;-91
2023/08/29 06:53:06;;;;;;;0.10;0.10;;;;;;;;;;6159626;23;20075;-90
2023/08/29 06:55:34;;;;;;;0.10;0.10;;;;;;;;;;6134698;23;20073;-90
2023/08/29 06:58:00;;;;;;;0.10;0.10;;;;;;;;;;6160065;23;20084;-90
2023/08/29 07:00:26;;;;;;;0.10;0.10;;;;;;;;;;6158992;23;20148;-89
2023/08/29 07:02:52;;;;;;;0.10;0.10;;;;;;;;;;6159720;23;20163;-91
2023/08/29 07:05:18;;;;;;;0.10;0.10;;;;;;;;;;6134851;23;20077;-91
2023/08/29 07:07:44;;;;;;;0.10;0.10;;;;;;;;;;6183493;23;20459;-91
2023/08/29 07:10:10;;;;;;;0.10;0.10;;;;;;;;;;6134779;23;20009;-91
2023/08/29 07:12:36;;;;;;;0.10;0.10;;;;;;;;;;6159393;23;20428;-90
2023/08/29 07:15:02;;;;;;;0.10;0.10;;;;;;;;;;6134886;23;20041;-91
2023/08/29 07:17:29;;;;;;;0.20;0.20;;;;;;;;;;6158990;23;20020;-90
2023/08/29 07:19:55;;;;;;;0.10;0.10;;;;;;;;;;6159337;23;20017;-91
2023/08/29 07:22:21;;;;;;;0.10;0.10;;;;;;;;;;6158830;23;20419;-90
2023/08/29 07:24:47;;;;;;;0.10;0.10;;;;;;;;;;6159551;23;20430;-90
2023/08/29 07:27:13;;;;;;;0.10;0.10;;;;;;;;;;6134711;23;20013;-91
2023/08/29 07:29:41;;;;;;;0.10;0.10;;;;;;;;;;6185441;23;20477;-90
2023/08/29 07:32:07;;;;;;;0.10;0.10;;;;;;;;;;6133632;23;20013;-91
2023/08/29 07:34:34;;;;;;;0.10;0.10;;;;;;;;;;6134317;23;20063;-91
2023/08/29 07:37:00;;;;;;;0.10;0.10;;;;;;;;;;6134253;23;20009;-90
2023/08/29 07:39:26;;;;;;;0.10;0.10;;;;;;;;;;6159128;23;20495;-91
2023/08/29 07:41:52;;;;;;;0.10;0.10;;;;;;;;;;6134770;23;20288;-91
2023/08/29 07:44:18;;;;;;;0.10;0.10;;;;;;;;;;6134739;23;20028;-91
2023/08/29 07:46:44;;;;;;;0.20;0.20;;;;;;;;;;6134651;23;20068;-92
2023/08/29 07:49:13;;;;;;;0.10;0.10;;;;;;;;;;6134567;23;20494;-91
2023/08/29 07:51:41;;;;;;;0.20;0.20;;;;;;;;;;6159997;23;20017;-91
2023/08/29 07:54:07;;;;;;;0.10;0.10;;;;;;;;;;6134214;23;20090;-90
2023/08/29 07:56:33;;;;;;;0.20;0.20;;;;;;;;;;6109460;23;20024;-90
2023/08/29 07:58:59;;;;;;;0.10;0.10;;;;;;;;;;6158228;23;20339;-91
2023/08/29 08:01:25;;;;;;;0.20;0.20;;;;;;;;;;6109842;23;20013;-92
2023/08/29 08:03:52;;;;;;;0.10;0.10;;;;;;;;;;6134573;23;20053;-92
2023/08/29 08:06:18;;;;;;;0.20;0.20;;;;;;;;;;6158440;23;20024;-92
2023/08/29 08:08:44;;;;;;;0.10;0.10;;;;;;;;;;6134901;23;20067;-92
2023/08/29 08:11:10;;;;;;;0.10;0.10;;;;;;;;;;6109816;23;20017;-91
2023/08/29 08:13:36;;;;;;;0.10;0.10;;;;;;;;;;6158029;23;20016;-91
2023/08/29 08:16:02;;;;;;;0.20;0.20;;;;;;;;;;6133861;23;20017;-92
2023/08/29 08:18:28;;;;;;;0.20;0.20;;;;;;;;;;6109414;23;20035;-91
2023/08/29 08:20:53;;;;;;;0.20;0.20;;;;;;;;;;6109221;23;20020;-92
2023/08/29 08:23:19;;;;;;;0.10;0.10;;;;;;;;;;6109985;23;20343;-91
2023/08/29 08:25:45;;;;;;;0.15;0.15;;;;;;;;;;6134110;23;20016;-91
2023/08/29 08:28:13;;;;;;;0.10;0.10;;;;;;;;;;6134414;23;20482;-91
2023/08/29 08:30:39;;;;;;;0.20;0.20;;;;;;;;;;6134414;23;20032;-90
2023/08/29 08:33:05;;;;;;;0.20;0.20;;;;;;;;;;6158885;23;20009;-92
2023/08/29 08:35:31;;;;;;;0.10;0.10;;;;;;;;;;6109695;23;20021;-92
2023/08/29 08:37:57;;;;;;;0.20;0.20;;;;;;;;;;6158837;23;20478;-91
2023/08/29 08:40:24;;;;;;;0.10;0.10;;;;;;;;;;6133936;23;20009;-91
2023/08/29 08:42:49;;;;;;;0.15;0.15;;;;;;;;;;6134381;23;20013;-92
2023/08/29 08:45:15;;;;;;;0.20;0.20;;;;;;;;;;6109419;23;20009;-92
2023/08/29 08:47:41;;;;;;;0.10;0.10;;;;;;;;;;6133430;23;20024;-93
2023/08/29 08:50:11;;;;;;;0.10;0.10;;;;;;;;;;6157846;23;20017;-91
2023/08/29 08:52:38;;;;;;;0.10;0.10;;;;;;;;;;6184257;23;20472;-89
2023/08/29 08:55:05;;;;;;;0.20;0.20;;;;;;;;;;6158383;23;20017;-90
2023/08/29 08:57:31;;;;;;;0.20;0.20;;;;;;;;;;6182348;23;20017;-90
2023/08/29 09:00:00;;;;;;;0.20;0.20;;;;;;;;;;6133258;23;20072;-92
2023/08/29 09:05:02;;;;;;;0.10;0.10;;;;;;;;;;6179883;22;20025;-84
2023/08/29 09:07:28;;;;;;;0.10;0.10;;;;;;;;;;6185164;23;20025;-86
2023/08/29 09:10:12;;;;;;;0.20;0.20;;;;;;;;;;6158039;23;20025;-85
2023/08/29 09:12:48;;;;;;;0.20;0.20;;;;;;;;;;6184766;23;20020;-85
2023/08/29 09:15:17;;;;;;;0.20;0.20;;;;;;;;;;6157936;23;20013;-86
2023/08/29 09:17:45;;;;;;;0.20;0.20;;;;;;;;;;6159105;23;20009;-86
2023/08/29 09:20:11;;;;;;;0.20;0.20;;;;;;;;;;6184730;23;20092;-86
2023/08/29 09:22:39;;;;;;;0.10;0.10;;;;;;;;;;6158052;23;20020;-87
2023/08/29 09:25:05;;;;;;;0.20;0.20;;;;;;;;;;6182875;23;20358;-87
2023/08/29 09:27:39;;;;;;;0.10;0.10;;;;;;;;;;6182969;23;20010;-86
2023/08/29 09:30:09;;;;;;;0.20;0.20;;;;;;;;;;6158607;23;20093;-87
2023/08/29 09:32:35;;;;;;;0.20;0.20;;;;;;;;;;6184609;23;20017;-87
2023/08/29 09:35:01;;;;;;;0.10;0.10;;;;;;;;;;6158654;23;20108;-87
2023/08/29 09:37:29;;;;;;;0.20;0.20;;;;;;;;;;6158590;23;20045;-88
2023/08/29 09:39:56;;;;;;;0.10;0.10;;;;;;;;;;6185047;23;20048;-90
2023/08/29 09:42:22;;;;;;;0.10;0.10;;;;;;;;;;6159271;23;20453;-89
2023/08/29 09:44:49;;;;;;;0.65;0.65;;;;;;;;;;6182893;23;20013;-89
2023/08/29 09:47:16;;;;;;;0.20;0.20;;;;;;;;;;6133575;23;20013;-89
2023/08/29 09:49:47;;;;;;;0.20;0.20;;;;;;;;;;6133669;23;20095;-89
2023/08/29 09:52:13;;;;;;;0.20;0.20;;;;;;;;;;6158704;23;20052;-88
2023/08/29 09:54:44;;;;;;;0.10;0.10;;;;;;;;;;6133755;23;20017;-88
2023/08/29 09:57:10;;;;;;;0.20;0.20;;;;;;;;;;6133488;23;20017;-89
2023/08/29 09:59:36;;;;;;;0.10;0.10;;;;;;;;;;6133502;23;20020;-89
2023/08/29 10:02:03;;;;;;;0.20;0.20;;;;;;;;;;6158267;23;20009;-88
2023/08/29 10:04:30;;;;;;;0.20;0.20;;;;;;;;;;6184333;23;20032;-90
2023/08/29 10:06:56;;;;;;;0.10;0.10;;;;;;;;;;6133938;23;20353;-89
2023/08/29 10:09:22;;;;;;;0.10;0.10;;;;;;;;;;6134329;23;20009;-87
2023/08/29 10:11:47;;;;;;;0.10;0.10;;;;;;;;;;6183608;23;20116;-87
2023/08/29 10:14:13;;;;;;;0.10;0.10;;;;;;;;;;6159037;23;20012;-86
2023/08/29 10:16:39;;;;;;;0.10;0.10;;;;;;;;;;6158082;23;20014;-86
2023/08/29 10:19:05;;;;;;;0.10;0.10;;;;;;;;;;6158146;23;20059;-86
2023/08/29 10:21:31;;;;;;;0.20;0.20;;;;;;;;;;6157982;23;20015;-86
2023/08/29 10:23:57;;;;;;;0.20;0.20;;;;;;;;;;6176858;23;20470;-86
2023/08/29 10:26:23;;;;;;;0.10;0.10;;;;;;;;;;6157975;23;20450;-87
2023/08/29 10:28:49;;;;;;;0.10;0.10;;;;;;;;;;6133260;23;20027;-87
2023/08/29 10:31:15;;;;;;;0.20;0.20;;;;;;;;;;6157839;23;20017;-85
2023/08/29 10:33:41;;;;;;;0.10;0.10;;;;;;;;;;6132977;23;20017;-86
2023/08/29 10:36:10;;;;;;;0.10;0.10;;;;;;;;;;6182338;23;20023;-86
2023/08/29 10:38:40;;;;;;;0.20;0.20;;;;;;;;;;6182076;23;20021;-86
2023/08/29 10:41:11;;;;;;;0.10;0.10;;;;;;;;;;6157676;23;20022;-86
2023/08/29 10:43:37;;;;;;;0.10;0.10;;;;;;;;;;6158974;23;20016;-87
2023/08/29 10:46:12;;;;;;;0.10;0.10;;;;;;;;;;6133320;23;20013;-86
2023/08/29 10:48:44;;;;;;;0.17;0.17;;;;;;;;;;6184162;23;20032;-87
2023/08/29 10:51:13;;;;;;;0.10;0.10;;;;;;;;;;6182482;23;20017;-86
2023/08/29 10:53:49;;;;;;;0.10;0.10;;;;;;;;;;6184347;23;20088;-87
2023/08/29 10:56:17;;;;;;;0.10;0.10;;;;;;;;;;6157841;23;20350;-86
2023/08/29 10:58:44;;;;;;;0.10;0.10;;;;;;;;;;6158386;23;20508;-85
2023/08/29 11:01:28;;;;;;;0.10;0.10;;;;;;;;;;6158339;23;20013;-85
2023/08/29 11:03:55;;;;;;;0.10;0.10;;;;;;;;;;6182451;23;20084;-85
2023/08/29 11:06:24;;;;;;;0.10;0.10;;;;;;;;;;6184270;23;20017;-85
2023/08/29 11:08:51;;;;;;;0.10;0.10;;;;;;;;;;6185736;23;20016;-85
2023/08/29 11:11:21;;;;;;;0.22;0.22;;;;;;;;;;6185957;23;20017;-85
2023/08/29 11:14:16;;;;;;;0.10;0.10;;;;;;;;;;6159577;23;20049;-85
2023/08/29 11:17:02;;;;;;;0.10;0.10;;;;;;;;;;6153412;23;20059;-85
2023/08/29 11:19:28;;;;;;;0.10;0.10;;;;;;;;;;6184007;23;20017;-85
2023/08/29 11:21:54;;;;;;;0.10;0.10;;;;;;;;;;6185908;23;20032;-85
2023/08/29 11:24:21;;;;;;;0.10;0.10;;;;;;;;;;6159320;23;20013;-85
2023/08/29 11:26:47;;;;;;;0.10;0.10;;;;;;;;;;6159445;23;20017;-85
2023/08/29 11:29:13;;;;;;;0.20;0.20;;;;;;;;;;6159367;23;20546;-85
2023/08/29 11:31:42;;;;;;;0.10;0.10;;;;;;;;;;6184024;23;20020;-85
2023/08/29 11:34:15;;;;;;;0.10;0.10;;;;;;;;;;6159432;23;20044;-86
2023/08/29 11:36:44;;;;;;;0.10;0.10;;;;;;;;;;6183917;23;20013;-85
2023/08/29 11:39:10;;;;;;;0.10;0.10;;;;;;;;;;6185811;23;20311;-86
2023/08/29 11:41:36;;;;;;;0.20;0.20;;;;;;;;;;6159378;23;20021;-86
2023/08/29 11:44:02;;;;;;;0.10;0.10;;;;;;;;;;6183993;23;20377;-86
2023/08/29 11:46:33;;;;;;;0.10;0.10;;;;;;;;;;6185968;23;20055;-86
2023/08/29 11:48:59;;;;;;;0.10;0.10;;;;;;;;;;6183986;23;20017;-85
2023/08/29 11:51:25;;;;;;;0.10;0.10;;;;;;;;;;6159288;23;20088;-86
2023/08/29 11:53:51;;;;;;;0.10;0.10;;;;;;;;;;6183814;23;20121;-84
2023/08/29 11:56:17;;;;;;;0.10;0.10;;;;;;;;;;6133660;23;20016;-86
2023/08/29 11:58:43;;;;;;;0.10;0.10;;;;;;;;;;6158306;23;20020;-85
2023/08/29 12:01:09;;;;;;;0.20;0.20;;;;;;;;;;6185123;23;20017;-85
2023/08/29 12:03:38;;;;;;;0.10;0.10;;;;;;;;;;6158977;23;20013;-85
2023/08/29 12:06:09;;;;;;;0.15;0.15;;;;;;;;;;6109783;23;20096;-84
2023/08/29 12:08:45;;;;;;;0.20;0.20;;;;;;;;;;6158978;23;20145;-85
2023/08/29 12:11:16;;;;;;;0.17;0.17;;;;;;;;;;6185228;23;20017;-85
2023/08/29 12:13:57;;;;;;;0.20;0.20;;;;;;;;;;6159146;23;20023;-85
2023/08/29 12:16:23;;;;;;;0.17;0.17;;;;;;;;;;6184975;23;20017;-86
2023/08/29 12:18:49;;;;;;;0.20;0.20;;;;;;;;;;6158439;23;20019;-85
2023/08/29 12:21:16;;;;;;;0.10;0.10;;;;;;;;;;6159136;23;20013;-85
2023/08/29 12:23:43;;;;;;;0.10;0.10;;;;;;;;;;6159356;23;20005;-84
2023/08/29 12:26:09;;;;;;;0.10;0.10;;;;;;;;;;6183377;23;20045;-85
2023/08/29 12:28:35;;;;;;;0.10;0.10;;;;;;;;;;6158575;23;20022;-85
2023/08/29 12:31:01;;;;;;;0.10;0.10;;;;;;;;;;6158662;23;20088;-84
2023/08/29 12:33:27;;;;;;;0.10;0.10;;;;;;;;;;6184862;23;20017;-85
2023/08/29 12:35:54;;;;;;;0.10;0.10;;;;;;;;;;6158599;23;20088;-85
2023/08/29 12:38:21;;;;;;;0.10;0.10;;;;;;;;;;6185236;23;20017;-85
2023/08/29 12:40:47;;;;;;;0.10;0.10;;;;;;;;;;6133664;23;20024;-85
2023/08/29 12:43:16;;;;;;;0.10;0.10;;;;;;;;;;6133934;23;20045;-85
2023/08/29 12:45:43;;;;;;;0.10;0.10;;;;;;;;;;6183144;23;20016;-84
2023/08/29 12:48:09;;;;;;;0.20;0.20;;;;;;;;;;6133863;23;20024;-84
2023/08/29 12:50:35;;;;;;;0.10;0.10;;;;;;;;;;6158281;23;20017;-84
2023/08/29 12:53:01;;;;;;;0.10;0.10;;;;;;;;;;6185262;23;20013;-85
2023/08/29 12:55:28;;;;;;;0.10;0.10;;;;;;;;;;6133909;23;20025;-84
2023/08/29 12:57:54;;;;;;;0.20;0.20;;;;;;;;;;6158373;23;20095;-84
2023/08/29 13:00:20;;;;;;;0.10;0.10;;;;;;;;;;6158156;23;20063;-84
2023/08/29 13:02:46;;;;;;;0.15;0.15;;;;;;;;;;6185021;23;20084;-84
2023/08/29 13:05:13;;;;;;;0.10;0.10;;;;;;;;;;6133625;23;20024;-84
2023/08/29 13:07:39;;;;;;;0.10;0.10;;;;;;;;;;6158259;23;20096;-85
2023/08/29 13:10:05;;;;;;;0.10;0.10;;;;;;;;;;6183082;23;20021;-85
2023/08/29 13:12:34;;;;;;;0.10;0.10;;;;;;;;;;6184654;23;20013;-85
2023/08/29 13:15:00;;;;;;;0.10;0.10;;;;;;;;;;6182777;23;20020;-85
2023/08/29 13:17:26;;;;;;;0.20;0.20;;;;;;;;;;6184083;23;20500;-83
2023/08/29 13:19:52;;;;;;;0.10;0.10;;;;;;;;;;6182803;23;20327;-85
2023/08/29 13:22:18;;;;;;;0.10;0.10;;;;;;;;;;6133548;23;20387;-84
2023/08/29 13:24:44;;;;;;;0.10;0.10;;;;;;;;;;6133386;23;20013;-83
2023/08/29 13:27:10;;;;;;;0.20;0.20;;;;;;;;;;6184398;23;20009;-84
2023/08/29 13:29:36;;;;;;;0.10;0.10;;;;;;;;;;6158187;23;20020;-86
2023/08/29 13:32:02;;;;;;;0.20;0.20;;;;;;;;;;6133169;23;20017;-85
2023/08/29 13:34:28;;;;;;;0.10;0.10;;;;;;;;;;6157929;23;20008;-85
2023/08/29 13:36:54;;;;;;;0.10;0.10;;;;;;;;;;6157860;23;20446;-85
2023/08/29 13:39:20;;;;;;;0.10;0.10;;;;;;;;;;6184584;23;20084;-84
2023/08/29 13:41:46;;;;;;;0.10;0.10;;;;;;;;;;6184209;23;20447;-85
2023/08/29 13:44:12;;;;;;;0.10;0.10;;;;;;;;;;6182643;23;20446;-84
2023/08/29 13:46:39;;;;;;;0.10;0.10;;;;;;;;;;6158525;23;20021;-85
2023/08/29 13:49:05;;;;;;;0.10;0.10;;;;;;;;;;6133650;23;20013;-84
2023/08/29 13:51:31;;;;;;;0.10;0.10;;;;;;;;;;6184285;23;20024;-85
2023/08/29 13:53:57;;;;;;;0.20;0.20;;;;;;;;;;6182172;23;20017;-85
2023/08/29 13:56:23;;;;;;;0.10;0.10;;;;;;;;;;6182237;23;20059;-85
2023/08/29 13:58:49;;;;;;;0.10;0.10;;;;;;;;;;6182309;23;20017;-85
2023/08/29 14:01:15;;;;;;;0.10;0.10;;;;;;;;;;6182348;23;20019;-85
2023/08/29 14:03:42;;;;;;;0.20;0.20;;;;;;;;;;6181952;23;20320;-86
2023/08/29 14:06:08;;;;;;;0.10;0.10;;;;;;;;;;6182461;23;20076;-85
2023/08/29 14:08:34;;;;;;;0.10;0.10;;;;;;;;;;6157940;23;20073;-84
2023/08/29 14:11:01;;;;;;;0.10;0.10;;;;;;;;;;6157726;23;20051;-84
2023/08/29 14:13:27;;;;;;;0.10;0.10;;;;;;;;;;6157607;23;20013;-86
2023/08/29 14:16:05;;;;;;;0.10;0.10;;;;;;;;;;6158066;23;20044;-86
2023/08/29 14:18:32;;;;;;;0.30;0.30;;;;;;;;;;6159502;23;20020;-86
2023/08/29 14:20:58;;;;;;;0.10;0.10;;;;;;;;;;6184169;23;20017;-85
2023/08/29 14:23:24;;;;;;;0.10;0.10;;;;;;;;;;6182132;23;20457;-86
2023/08/29 14:25:50;;;;;;;0.20;0.20;;;;;;;;;;6184061;23;20009;-86
2023/08/29 14:28:17;;;;;;;0.10;0.10;;;;;;;;;;6157677;23;20020;-86
2023/08/29 14:30:46;;;;;;;0.10;0.10;;;;;;;;;;6157791;23;20410;-87
2023/08/29 14:33:12;;;;;;;0.10;0.10;;;;;;;;;;6133126;23;20469;-87
2023/08/29 14:35:38;;;;;;;0.10;0.10;;;;;;;;;;6157690;23;20017;-86
2023/08/29 14:38:04;;;;;;;0.10;0.10;;;;;;;;;;6157537;23;20445;-87
2023/08/29 14:40:30;;;;;;;0.10;0.10;;;;;;;;;;6158286;23;20014;-87
2023/08/29 14:42:56;;;;;;;0.10;0.10;;;;;;;;;;6159350;23;20010;-87